sensor_id;sensor_type;location;lat;lon;timestamp;P1;durP1;ratioP1;P2;durP2;ratioP2
41711;SDS011;27399;51.516;13.670;2023-06-14T00:01:35;5.57;;;1.65;;
41711;SDS011;27399;51.516;13.670;2023-06-14T00:04:01;8.95;;;1.58;;
41711;SDS011;27399;51.516;13.670;2023-06-14T00:06:28;3.65;;;1.33;;
41711;SDS011;27399;51.516;13.670;2023-06-14T00:08:54;2.88;;;1.60;;
41711;SDS011;27399;51.516;13.670;2023-06-14T00:11:20;3.78;;;1.25;;
41711;SDS011;27399;51.516;13.670;2023-06-14T00:13:45;4.70;;;1.25;;
41711;SDS011;27399;51.516;13.670;2023-06-14T00:16:12;5.38;;;1.63;;
41711;SDS011;27399;51.516;13.670;2023-06-14T00:18:38;4.50;;;1.77;;
41711;SDS011;27399;51.516;13.670;2023-06-14T00:21:04;3.60;;;1.60;;
41711;SDS011;27399;51.516;13.670;2023-06-14T00:23:30;3.88;;;1.50;;
41711;SDS011;27399;51.516;13.670;2023-06-14T00:25:56;4.30;;;1.58;;
41711;SDS011;27399;51.516;13.670;2023-06-14T00:28:21;4.30;;;1.60;;
41711;SDS011;27399;51.516;13.670;2023-06-14T00:30:47;3.17;;;1.15;;
41711;SDS011;27399;51.516;13.670;2023-06-14T00:36:43;2.08;;;1.30;;
41711;SDS011;27399;51.516;13.670;2023-06-14T00:39:09;7.60;;;1.50;;
41711;SDS011;27399;51.516;13.670;2023-06-14T00:41:35;4.38;;;1.70;;
41711;SDS011;27399;51.516;13.670;2023-06-14T00:44:00;4.28;;;1.27;;
41711;SDS011;27399;51.516;13.670;2023-06-14T00:46:26;2.38;;;1.70;;
41711;SDS011;27399;51.516;13.670;2023-06-14T00:48:51;7.35;;;1.40;;
41711;SDS011;27399;51.516;13.670;2023-06-14T00:51:17;5.72;;;1.60;;
41711;SDS011;27399;51.516;13.670;2023-06-14T00:53:43;4.18;;;1.30;;
41711;SDS011;27399;51.516;13.670;2023-06-14T00:56:12;5.53;;;1.42;;
41711;SDS011;27399;51.516;13.670;2023-06-14T00:58:39;7.95;;;1.52;;
41711;SDS011;27399;51.516;13.670;2023-06-14T01:01:06;1.88;;;1.20;;
41711;SDS011;27399;51.516;13.670;2023-06-14T01:03:32;9.18;;;1.52;;
41711;SDS011;27399;51.516;13.670;2023-06-14T01:09:08;2.13;;;1.60;;
41711;SDS011;27399;51.516;13.670;2023-06-14T01:14:26;4.43;;;1.50;;
41711;SDS011;27399;51.516;13.670;2023-06-14T01:16:53;3.08;;;1.70;;
41711;SDS011;27399;51.516;13.670;2023-06-14T01:19:20;2.38;;;1.50;;
41711;SDS011;27399;51.516;13.670;2023-06-14T01:21:47;2.47;;;1.70;;
41711;SDS011;27399;51.516;13.670;2023-06-14T01:24:16;2.55;;;1.70;;
41711;SDS011;27399;51.516;13.670;2023-06-14T01:26:44;3.33;;;1.65;;
41711;SDS011;27399;51.516;13.670;2023-06-14T01:29:16;3.17;;;1.63;;
41711;SDS011;27399;51.516;13.670;2023-06-14T01:31:42;7.43;;;1.92;;
41711;SDS011;27399;51.516;13.670;2023-06-14T01:34:10;2.38;;;1.45;;
41711;SDS011;27399;51.516;13.670;2023-06-14T01:36:36;7.20;;;1.40;;
41711;SDS011;27399;51.516;13.670;2023-06-14T01:39:05;3.13;;;1.70;;
41711;SDS011;27399;51.516;13.670;2023-06-14T01:41:32;3.88;;;1.50;;
41711;SDS011;27399;51.516;13.670;2023-06-14T01:44:00;1.90;;;1.63;;
41711;SDS011;27399;51.516;13.670;2023-06-14T01:46:26;3.65;;;1.85;;
41711;SDS011;27399;51.516;13.670;2023-06-14T01:48:52;5.32;;;1.85;;
41711;SDS011;27399;51.516;13.670;2023-06-14T01:51:18;7.50;;;1.80;;
41711;SDS011;27399;51.516;13.670;2023-06-14T01:53:44;4.38;;;2.03;;
41711;SDS011;27399;51.516;13.670;2023-06-14T01:56:10;3.53;;;1.75;;
41711;SDS011;27399;51.516;13.670;2023-06-14T01:58:35;2.72;;;1.70;;
41711;SDS011;27399;51.516;13.670;2023-06-14T02:01:01;4.53;;;2.08;;
41711;SDS011;27399;51.516;13.670;2023-06-14T02:03:27;5.25;;;1.80;;
41711;SDS011;27399;51.516;13.670;2023-06-14T02:05:52;4.03;;;1.83;;
41711;SDS011;27399;51.516;13.670;2023-06-14T02:08:19;5.75;;;2.08;;
41711;SDS011;27399;51.516;13.670;2023-06-14T02:10:45;2.92;;;1.48;;
41711;SDS011;27399;51.516;13.670;2023-06-14T02:13:10;2.85;;;1.75;;
41711;SDS011;27399;51.516;13.670;2023-06-14T02:15:36;6.53;;;1.50;;
41711;SDS011;27399;51.516;13.670;2023-06-14T02:18:02;6.57;;;1.50;;
41711;SDS011;27399;51.516;13.670;2023-06-14T02:20:28;4.93;;;2.08;;
41711;SDS011;27399;51.516;13.670;2023-06-14T02:22:54;7.38;;;1.90;;
41711;SDS011;27399;51.516;13.670;2023-06-14T02:25:20;4.03;;;1.70;;
41711;SDS011;27399;51.516;13.670;2023-06-14T02:27:46;2.15;;;1.45;;
41711;SDS011;27399;51.516;13.670;2023-06-14T02:30:11;3.25;;;1.90;;
41711;SDS011;27399;51.516;13.670;2023-06-14T02:32:37;4.45;;;1.85;;
41711;SDS011;27399;51.516;13.670;2023-06-14T02:35:03;6.38;;;2.05;;
41711;SDS011;27399;51.516;13.670;2023-06-14T02:37:29;2.88;;;1.73;;
41711;SDS011;27399;51.516;13.670;2023-06-14T02:39:55;4.63;;;2.08;;
41711;SDS011;27399;51.516;13.670;2023-06-14T02:42:21;8.80;;;2.17;;
41711;SDS011;27399;51.516;13.670;2023-06-14T02:44:47;5.50;;;1.85;;
41711;SDS011;27399;51.516;13.670;2023-06-14T02:50:37;3.75;;;1.90;;
41711;SDS011;27399;51.516;13.670;2023-06-14T02:53:03;6.10;;;2.40;;
41711;SDS011;27399;51.516;13.670;2023-06-14T02:55:29;6.28;;;2.10;;
41711;SDS011;27399;51.516;13.670;2023-06-14T02:57:54;4.85;;;2.38;;
41711;SDS011;27399;51.516;13.670;2023-06-14T03:00:20;3.10;;;1.80;;
41711;SDS011;27399;51.516;13.670;2023-06-14T03:02:46;8.18;;;2.28;;
41711;SDS011;27399;51.516;13.670;2023-06-14T03:05:11;4.40;;;2.45;;
41711;SDS011;27399;51.516;13.670;2023-06-14T03:07:38;3.08;;;2.05;;
41711;SDS011;27399;51.516;13.670;2023-06-14T03:10:08;3.88;;;2.42;;
41711;SDS011;27399;51.516;13.670;2023-06-14T03:12:35;4.03;;;2.58;;
41711;SDS011;27399;51.516;13.670;2023-06-14T03:15:01;3.95;;;2.00;;
41711;SDS011;27399;51.516;13.670;2023-06-14T03:17:27;2.78;;;1.95;;
41711;SDS011;27399;51.516;13.670;2023-06-14T03:19:57;3.83;;;2.10;;
41711;SDS011;27399;51.516;13.670;2023-06-14T03:22:22;4.05;;;2.50;;
41711;SDS011;27399;51.516;13.670;2023-06-14T03:24:51;5.18;;;1.83;;
41711;SDS011;27399;51.516;13.670;2023-06-14T03:27:17;9.68;;;3.28;;
41711;SDS011;27399;51.516;13.670;2023-06-14T03:29:43;4.22;;;2.30;;
41711;SDS011;27399;51.516;13.670;2023-06-14T03:32:09;3.08;;;2.33;;
41711;SDS011;27399;51.516;13.670;2023-06-14T03:34:35;4.40;;;2.35;;
41711;SDS011;27399;51.516;13.670;2023-06-14T03:37:00;3.92;;;2.22;;
41711;SDS011;27399;51.516;13.670;2023-06-14T03:39:26;4.78;;;2.03;;
41711;SDS011;27399;51.516;13.670;2023-06-14T03:41:52;4.28;;;2.75;;
41711;SDS011;27399;51.516;13.670;2023-06-14T03:44:17;4.85;;;2.50;;
41711;SDS011;27399;51.516;13.670;2023-06-14T03:46:44;4.40;;;2.30;;
41711;SDS011;27399;51.516;13.670;2023-06-14T03:49:11;4.70;;;2.45;;
41711;SDS011;27399;51.516;13.670;2023-06-14T03:51:37;3.42;;;2.35;;
41711;SDS011;27399;51.516;13.670;2023-06-14T03:54:03;3.75;;;2.28;;
41711;SDS011;27399;51.516;13.670;2023-06-14T03:56:28;3.60;;;2.17;;
41711;SDS011;27399;51.516;13.670;2023-06-14T03:58:54;5.25;;;2.72;;
41711;SDS011;27399;51.516;13.670;2023-06-14T04:01:20;3.33;;;2.10;;
41711;SDS011;27399;51.516;13.670;2023-06-14T04:03:46;6.57;;;2.35;;
41711;SDS011;27399;51.516;13.670;2023-06-14T04:06:11;2.90;;;2.25;;
41711;SDS011;27399;51.516;13.670;2023-06-14T04:08:37;13.18;;;2.53;;
41711;SDS011;27399;51.516;13.670;2023-06-14T04:11:04;3.80;;;2.38;;
41711;SDS011;27399;51.516;13.670;2023-06-14T04:13:30;4.28;;;2.58;;
41711;SDS011;27399;51.516;13.670;2023-06-14T04:15:56;5.15;;;2.70;;
41711;SDS011;27399;51.516;13.670;2023-06-14T04:18:22;4.32;;;2.90;;
41711;SDS011;27399;51.516;13.670;2023-06-14T04:20:49;3.92;;;2.50;;
41711;SDS011;27399;51.516;13.670;2023-06-14T04:23:18;9.02;;;2.63;;
41711;SDS011;27399;51.516;13.670;2023-06-14T04:25:44;5.15;;;2.85;;
41711;SDS011;27399;51.516;13.670;2023-06-14T04:28:15;7.68;;;3.45;;
41711;SDS011;27399;51.516;13.670;2023-06-14T04:30:42;8.15;;;3.03;;
41711;SDS011;27399;51.516;13.670;2023-06-14T04:33:08;5.35;;;3.40;;
41711;SDS011;27399;51.516;13.670;2023-06-14T04:35:35;6.10;;;3.58;;
41711;SDS011;27399;51.516;13.670;2023-06-14T04:38:02;6.47;;;3.30;;
41711;SDS011;27399;51.516;13.670;2023-06-14T04:40:34;8.60;;;3.58;;
41711;SDS011;27399;51.516;13.670;2023-06-14T04:43:07;6.82;;;3.45;;
41711;SDS011;27399;51.516;13.670;2023-06-14T04:45:33;7.10;;;2.97;;
41711;SDS011;27399;51.516;13.670;2023-06-14T04:47:59;5.88;;;3.20;;
41711;SDS011;27399;51.516;13.670;2023-06-14T04:50:25;7.15;;;3.10;;
41711;SDS011;27399;51.516;13.670;2023-06-14T04:52:52;4.88;;;3.10;;
41711;SDS011;27399;51.516;13.670;2023-06-14T04:55:18;5.07;;;3.22;;
41711;SDS011;27399;51.516;13.670;2023-06-14T04:57:45;5.28;;;3.10;;
41711;SDS011;27399;51.516;13.670;2023-06-14T05:00:10;6.88;;;2.83;;
41711;SDS011;27399;51.516;13.670;2023-06-14T05:02:36;4.40;;;2.92;;
41711;SDS011;27399;51.516;13.670;2023-06-14T05:05:03;5.45;;;3.05;;
41711;SDS011;27399;51.516;13.670;2023-06-14T05:07:33;4.63;;;2.95;;
41711;SDS011;27399;51.516;13.670;2023-06-14T05:10:00;8.68;;;3.70;;
41711;SDS011;27399;51.516;13.670;2023-06-14T05:12:25;6.90;;;3.30;;
41711;SDS011;27399;51.516;13.670;2023-06-14T05:14:51;8.05;;;3.75;;
41711;SDS011;27399;51.516;13.670;2023-06-14T05:17:16;6.55;;;3.33;;
41711;SDS011;27399;51.516;13.670;2023-06-14T05:19:42;4.25;;;2.83;;
41711;SDS011;27399;51.516;13.670;2023-06-14T05:22:08;11.27;;;2.90;;
41711;SDS011;27399;51.516;13.670;2023-06-14T05:24:34;5.93;;;3.10;;
41711;SDS011;27399;51.516;13.670;2023-06-14T05:27:00;3.50;;;2.67;;
41711;SDS011;27399;51.516;13.670;2023-06-14T05:36:09;4.55;;;3.25;;
41711;SDS011;27399;51.516;13.670;2023-06-14T05:38:34;11.15;;;3.13;;
41711;SDS011;27399;51.516;13.670;2023-06-14T05:41:00;5.57;;;2.90;;
41711;SDS011;27399;51.516;13.670;2023-06-14T05:43:26;3.47;;;2.78;;
41711;SDS011;27399;51.516;13.670;2023-06-14T05:45:51;7.43;;;3.13;;
41711;SDS011;27399;51.516;13.670;2023-06-14T05:48:17;4.40;;;2.95;;
41711;SDS011;27399;51.516;13.670;2023-06-14T05:50:43;6.60;;;2.97;;
41711;SDS011;27399;51.516;13.670;2023-06-14T05:53:08;5.55;;;2.53;;
41711;SDS011;27399;51.516;13.670;2023-06-14T05:55:34;7.78;;;3.58;;
41711;SDS011;27399;51.516;13.670;2023-06-14T05:58:00;11.80;;;3.38;;
41711;SDS011;27399;51.516;13.670;2023-06-14T06:00:26;6.50;;;3.42;;
41711;SDS011;27399;51.516;13.670;2023-06-14T06:02:51;5.53;;;3.35;;
41711;SDS011;27399;51.516;13.670;2023-06-14T06:05:17;4.13;;;2.83;;
41711;SDS011;27399;51.516;13.670;2023-06-14T06:07:43;4.50;;;2.80;;
41711;SDS011;27399;51.516;13.670;2023-06-14T06:10:11;5.03;;;3.97;;
41711;SDS011;27399;51.516;13.670;2023-06-14T06:12:37;7.22;;;3.17;;
41711;SDS011;27399;51.516;13.670;2023-06-14T06:15:03;5.18;;;2.95;;
41711;SDS011;27399;51.516;13.670;2023-06-14T06:17:29;4.60;;;2.90;;
41711;SDS011;27399;51.516;13.670;2023-06-14T06:19:55;3.92;;;2.70;;
41711;SDS011;27399;51.516;13.670;2023-06-14T06:22:20;3.55;;;2.75;;
41711;SDS011;27399;51.516;13.670;2023-06-14T06:24:46;6.70;;;2.53;;
41711;SDS011;27399;51.516;13.670;2023-06-14T06:27:12;4.10;;;2.80;;
41711;SDS011;27399;51.516;13.670;2023-06-14T06:29:38;5.95;;;2.45;;
41711;SDS011;27399;51.516;13.670;2023-06-14T06:32:04;4.05;;;2.90;;
41711;SDS011;27399;51.516;13.670;2023-06-14T06:34:30;5.32;;;2.92;;
41711;SDS011;27399;51.516;13.670;2023-06-14T06:36:55;4.38;;;2.85;;
41711;SDS011;27399;51.516;13.670;2023-06-14T06:39:21;4.43;;;2.35;;
41711;SDS011;27399;51.516;13.670;2023-06-14T06:41:46;3.83;;;2.65;;
41711;SDS011;27399;51.516;13.670;2023-06-14T06:44:12;8.35;;;2.78;;
41711;SDS011;27399;51.516;13.670;2023-06-14T06:46:38;4.28;;;2.80;;
41711;SDS011;27399;51.516;13.670;2023-06-14T06:49:08;3.13;;;2.33;;
41711;SDS011;27399;51.516;13.670;2023-06-14T06:51:40;4.53;;;2.50;;
41711;SDS011;27399;51.516;13.670;2023-06-14T06:54:07;8.73;;;3.00;;
41711;SDS011;27399;51.516;13.670;2023-06-14T06:56:33;11.77;;;2.22;;
41711;SDS011;27399;51.516;13.670;2023-06-14T06:58:59;5.97;;;2.13;;
41711;SDS011;27399;51.516;13.670;2023-06-14T07:01:25;3.47;;;2.25;;
41711;SDS011;27399;51.516;13.670;2023-06-14T07:03:51;6.07;;;2.55;;
41711;SDS011;27399;51.516;13.670;2023-06-14T07:06:17;5.63;;;2.85;;
41711;SDS011;27399;51.516;13.670;2023-06-14T07:08:44;3.17;;;2.28;;
41711;SDS011;27399;51.516;13.670;2023-06-14T07:11:09;2.92;;;2.58;;
41711;SDS011;27399;51.516;13.670;2023-06-14T07:13:35;3.75;;;2.80;;
41711;SDS011;27399;51.516;13.670;2023-06-14T07:16:01;3.10;;;2.65;;
41711;SDS011;27399;51.516;13.670;2023-06-14T07:18:27;6.65;;;2.70;;
41711;SDS011;27399;51.516;13.670;2023-06-14T07:20:53;3.95;;;2.53;;
41711;SDS011;27399;51.516;13.670;2023-06-14T07:23:19;2.92;;;1.95;;
41711;SDS011;27399;51.516;13.670;2023-06-14T07:25:46;6.15;;;2.42;;
41711;SDS011;27399;51.516;13.670;2023-06-14T07:28:12;3.03;;;2.13;;
41711;SDS011;27399;51.516;13.670;2023-06-14T07:30:37;4.60;;;2.35;;
41711;SDS011;27399;51.516;13.670;2023-06-14T07:33:03;5.20;;;2.88;;
41711;SDS011;27399;51.516;13.670;2023-06-14T07:35:29;16.05;;;2.65;;
41711;SDS011;27399;51.516;13.670;2023-06-14T07:37:54;3.33;;;2.10;;
41711;SDS011;27399;51.516;13.670;2023-06-14T07:40:20;3.42;;;2.38;;
41711;SDS011;27399;51.516;13.670;2023-06-14T07:42:46;6.07;;;2.42;;
41711;SDS011;27399;51.516;13.670;2023-06-14T07:45:13;3.80;;;2.70;;
41711;SDS011;27399;51.516;13.670;2023-06-14T07:47:38;3.00;;;1.90;;
41711;SDS011;27399;51.516;13.670;2023-06-14T07:50:04;3.50;;;2.50;;
41711;SDS011;27399;51.516;13.670;2023-06-14T07:52:30;6.05;;;2.38;;
41711;SDS011;27399;51.516;13.670;2023-06-14T07:54:56;3.75;;;2.25;;
41711;SDS011;27399;51.516;13.670;2023-06-14T07:57:22;6.00;;;2.78;;
41711;SDS011;27399;51.516;13.670;2023-06-14T07:59:47;3.00;;;2.20;;
41711;SDS011;27399;51.516;13.670;2023-06-14T08:02:13;6.38;;;2.30;;
41711;SDS011;27399;51.516;13.670;2023-06-14T08:04:39;7.38;;;2.88;;
41711;SDS011;27399;51.516;13.670;2023-06-14T08:07:05;5.15;;;2.30;;
41711;SDS011;27399;51.516;13.670;2023-06-14T08:09:31;6.47;;;2.63;;
41711;SDS011;27399;51.516;13.670;2023-06-14T08:11:56;4.15;;;2.40;;
41711;SDS011;27399;51.516;13.670;2023-06-14T08:14:22;4.78;;;2.60;;
41711;SDS011;27399;51.516;13.670;2023-06-14T08:16:48;4.68;;;2.83;;
41711;SDS011;27399;51.516;13.670;2023-06-14T08:19:14;4.00;;;2.50;;
41711;SDS011;27399;51.516;13.670;2023-06-14T08:21:41;9.35;;;2.95;;
41711;SDS011;27399;51.516;13.670;2023-06-14T08:24:10;5.63;;;2.72;;
41711;SDS011;27399;51.516;13.670;2023-06-14T08:26:37;4.55;;;2.60;;
41711;SDS011;27399;51.516;13.670;2023-06-14T08:29:04;8.88;;;2.83;;
41711;SDS011;27399;51.516;13.670;2023-06-14T08:31:32;5.72;;;3.20;;
41711;SDS011;27399;51.516;13.670;2023-06-14T08:33:58;6.07;;;2.70;;
41711;SDS011;27399;51.516;13.670;2023-06-14T08:36:23;10.82;;;2.95;;
41711;SDS011;27399;51.516;13.670;2023-06-14T08:38:52;5.13;;;2.40;;
41711;SDS011;27399;51.516;13.670;2023-06-14T08:41:21;4.03;;;2.70;;
41711;SDS011;27399;51.516;13.670;2023-06-14T08:43:49;5.88;;;2.47;;
41711;SDS011;27399;51.516;13.670;2023-06-14T08:46:17;9.75;;;3.00;;
41711;SDS011;27399;51.516;13.670;2023-06-14T08:48:54;3.20;;;2.15;;
41711;SDS011;27399;51.516;13.670;2023-06-14T08:51:25;9.65;;;2.53;;
41711;SDS011;27399;51.516;13.670;2023-06-14T08:53:55;5.95;;;2.15;;
41711;SDS011;27399;51.516;13.670;2023-06-14T08:56:24;3.60;;;1.95;;
41711;SDS011;27399;51.516;13.670;2023-06-14T08:58:51;3.65;;;2.20;;
41711;SDS011;27399;51.516;13.670;2023-06-14T09:01:17;3.20;;;2.38;;
41711;SDS011;27399;51.516;13.670;2023-06-14T09:03:44;3.10;;;2.33;;
41711;SDS011;27399;51.516;13.670;2023-06-14T09:06:10;4.68;;;2.50;;
41711;SDS011;27399;51.516;13.670;2023-06-14T09:08:46;8.45;;;2.67;;
41711;SDS011;27399;51.516;13.670;2023-06-14T09:11:14;5.82;;;3.10;;
41711;SDS011;27399;51.516;13.670;2023-06-14T09:13:41;3.30;;;2.70;;
41711;SDS011;27399;51.516;13.670;2023-06-14T09:16:07;3.35;;;2.58;;
41711;SDS011;27399;51.516;13.670;2023-06-14T09:18:51;7.07;;;2.80;;
41711;SDS011;27399;51.516;13.670;2023-06-14T09:21:18;6.25;;;2.90;;
41711;SDS011;27399;51.516;13.670;2023-06-14T09:23:46;3.90;;;2.85;;
41711;SDS011;27399;51.516;13.670;2023-06-14T09:28:45;5.97;;;3.08;;
41711;SDS011;27399;51.516;13.670;2023-06-14T09:31:18;4.88;;;3.45;;
41711;SDS011;27399;51.516;13.670;2023-06-14T09:33:45;7.13;;;3.92;;
41711;SDS011;27399;51.516;13.670;2023-06-14T09:36:22;5.72;;;3.38;;
41711;SDS011;27399;51.516;13.670;2023-06-14T09:38:59;4.60;;;3.30;;
41711;SDS011;27399;51.516;13.670;2023-06-14T09:41:36;8.23;;;3.40;;
41711;SDS011;27399;51.516;13.670;2023-06-14T09:44:06;6.30;;;3.20;;
41711;SDS011;27399;51.516;13.670;2023-06-14T09:46:33;4.68;;;3.00;;
41711;SDS011;27399;51.516;13.670;2023-06-14T09:49:00;4.68;;;3.30;;
41711;SDS011;27399;51.516;13.670;2023-06-14T09:51:27;4.18;;;3.67;;
41711;SDS011;27399;51.516;13.670;2023-06-14T09:53:55;4.05;;;3.08;;
41711;SDS011;27399;51.516;13.670;2023-06-14T09:56:35;4.70;;;2.92;;
41711;SDS011;27399;51.516;13.670;2023-06-14T09:59:04;5.43;;;3.58;;
41711;SDS011;27399;51.516;13.670;2023-06-14T10:01:32;8.63;;;3.38;;
41711;SDS011;27399;51.516;13.670;2023-06-14T10:04:04;5.88;;;3.00;;
41711;SDS011;27399;51.516;13.670;2023-06-14T10:06:31;4.25;;;3.08;;
41711;SDS011;27399;51.516;13.670;2023-06-14T10:09:02;7.63;;;3.43;;
41711;SDS011;27399;51.516;13.670;2023-06-14T10:11:29;5.38;;;3.20;;
41711;SDS011;27399;51.516;13.670;2023-06-14T10:13:55;6.43;;;3.17;;
41711;SDS011;27399;51.516;13.670;2023-06-14T10:16:30;5.35;;;4.22;;
41711;SDS011;27399;51.516;13.670;2023-06-14T10:19:04;3.72;;;2.88;;
41711;SDS011;27399;51.516;13.670;2023-06-14T10:24:38;6.22;;;3.70;;
41711;SDS011;27399;51.516;13.670;2023-06-14T10:27:07;10.45;;;3.10;;
41711;SDS011;27399;51.516;13.670;2023-06-14T10:32:21;11.40;;;4.18;;
41711;SDS011;27399;51.516;13.670;2023-06-14T10:34:53;6.15;;;3.08;;
41711;SDS011;27399;51.516;13.670;2023-06-14T10:39:46;4.40;;;3.50;;
41711;SDS011;27399;51.516;13.670;2023-06-14T10:42:12;9.40;;;3.30;;
41711;SDS011;27399;51.516;13.670;2023-06-14T10:44:42;10.55;;;3.58;;
41711;SDS011;27399;51.516;13.670;2023-06-14T10:47:27;6.93;;;3.15;;
41711;SDS011;27399;51.516;13.670;2023-06-14T10:50:08;3.58;;;2.58;;
41711;SDS011;27399;51.516;13.670;2023-06-14T10:52:40;4.63;;;3.40;;
41711;SDS011;27399;51.516;13.670;2023-06-14T10:55:10;6.80;;;3.40;;
41711;SDS011;27399;51.516;13.670;2023-06-14T10:57:49;6.18;;;3.20;;
41711;SDS011;27399;51.516;13.670;2023-06-14T11:00:17;9.23;;;3.38;;
41711;SDS011;27399;51.516;13.670;2023-06-14T11:05:31;4.72;;;3.45;;
41711;SDS011;27399;51.516;13.670;2023-06-14T11:08:37;6.75;;;3.40;;
41711;SDS011;27399;51.516;13.670;2023-06-14T11:11:15;4.57;;;3.40;;
41711;SDS011;27399;51.516;13.670;2023-06-14T11:13:45;5.75;;;2.85;;
41711;SDS011;27399;51.516;13.670;2023-06-14T11:16:12;6.47;;;3.03;;
41711;SDS011;27399;51.516;13.670;2023-06-14T11:18:39;7.20;;;2.88;;
41711;SDS011;27399;51.516;13.670;2023-06-14T11:21:06;7.30;;;3.30;;
41711;SDS011;27399;51.516;13.670;2023-06-14T11:23:32;9.98;;;2.90;;
41711;SDS011;27399;51.516;13.670;2023-06-14T11:25:57;2.90;;;2.35;;
41711;SDS011;27399;51.516;13.670;2023-06-14T11:28:23;6.68;;;2.95;;
41711;SDS011;27399;51.516;13.670;2023-06-14T11:30:49;7.78;;;2.90;;
41711;SDS011;27399;51.516;13.670;2023-06-14T11:33:25;3.28;;;2.65;;
41711;SDS011;27399;51.516;13.670;2023-06-14T11:35:50;5.45;;;2.90;;
41711;SDS011;27399;51.516;13.670;2023-06-14T11:38:16;8.13;;;3.88;;
41711;SDS011;27399;51.516;13.670;2023-06-14T11:40:42;4.72;;;3.20;;
41711;SDS011;27399;51.516;13.670;2023-06-14T11:43:08;6.00;;;2.80;;
41711;SDS011;27399;51.516;13.670;2023-06-14T11:45:33;3.85;;;2.63;;
41711;SDS011;27399;51.516;13.670;2023-06-14T11:47:59;10.38;;;3.00;;
41711;SDS011;27399;51.516;13.670;2023-06-14T11:50:25;5.28;;;3.50;;
41711;SDS011;27399;51.516;13.670;2023-06-14T11:52:54;3.25;;;2.72;;
41711;SDS011;27399;51.516;13.670;2023-06-14T11:55:28;4.70;;;3.15;;
41711;SDS011;27399;51.516;13.670;2023-06-14T11:57:54;7.53;;;3.30;;
41711;SDS011;27399;51.516;13.670;2023-06-14T12:00:24;3.72;;;3.05;;
41711;SDS011;27399;51.516;13.670;2023-06-14T12:02:53;5.95;;;3.30;;
41711;SDS011;27399;51.516;13.670;2023-06-14T12:05:23;5.32;;;2.80;;
41711;SDS011;27399;51.516;13.670;2023-06-14T12:07:57;4.88;;;3.17;;
41711;SDS011;27399;51.516;13.670;2023-06-14T12:10:25;6.85;;;3.03;;
41711;SDS011;27399;51.516;13.670;2023-06-14T12:12:50;7.10;;;3.40;;
41711;SDS011;27399;51.516;13.670;2023-06-14T12:15:16;3.80;;;2.75;;
41711;SDS011;27399;51.516;13.670;2023-06-14T12:17:42;11.73;;;3.00;;
41711;SDS011;27399;51.516;13.670;2023-06-14T12:20:09;5.38;;;2.63;;
41711;SDS011;27399;51.516;13.670;2023-06-14T12:23:00;5.80;;;3.00;;
41711;SDS011;27399;51.516;13.670;2023-06-14T12:25:35;8.55;;;3.60;;
41711;SDS011;27399;51.516;13.670;2023-06-14T12:28:09;4.70;;;3.08;;
41711;SDS011;27399;51.516;13.670;2023-06-14T12:30:36;9.30;;;3.17;;
41711;SDS011;27399;51.516;13.670;2023-06-14T12:33:03;8.40;;;3.20;;
41711;SDS011;27399;51.516;13.670;2023-06-14T12:35:29;6.75;;;3.13;;
41711;SDS011;27399;51.516;13.670;2023-06-14T12:37:55;8.65;;;2.90;;
41711;SDS011;27399;51.516;13.670;2023-06-14T12:40:21;4.57;;;2.40;;
41711;SDS011;27399;51.516;13.670;2023-06-14T12:42:47;8.05;;;2.17;;
41711;SDS011;27399;51.516;13.670;2023-06-14T12:45:13;6.38;;;2.83;;
41711;SDS011;27399;51.516;13.670;2023-06-14T12:47:39;5.72;;;2.65;;
41711;SDS011;27399;51.516;13.670;2023-06-14T12:50:05;7.50;;;2.20;;
41711;SDS011;27399;51.516;13.670;2023-06-14T12:52:31;3.45;;;1.83;;
41711;SDS011;27399;51.516;13.670;2023-06-14T12:55:01;9.43;;;2.25;;
41711;SDS011;27399;51.516;13.670;2023-06-14T12:57:28;4.57;;;2.38;;
41711;SDS011;27399;51.516;13.670;2023-06-14T12:59:53;3.55;;;2.45;;
41711;SDS011;27399;51.516;13.670;2023-06-14T13:02:19;5.45;;;2.95;;
41711;SDS011;27399;51.516;13.670;2023-06-14T13:04:49;5.15;;;2.42;;
41711;SDS011;27399;51.516;13.670;2023-06-14T13:07:16;6.70;;;2.17;;
41711;SDS011;27399;51.516;13.670;2023-06-14T13:09:42;4.93;;;2.50;;
41711;SDS011;27399;51.516;13.670;2023-06-14T13:12:08;8.02;;;2.70;;
41711;SDS011;27399;51.516;13.670;2023-06-14T13:14:36;9.52;;;2.67;;
41711;SDS011;27399;51.516;13.670;2023-06-14T13:17:02;4.60;;;2.40;;
41711;SDS011;27399;51.516;13.670;2023-06-14T13:19:28;3.80;;;2.70;;
41711;SDS011;27399;51.516;13.670;2023-06-14T13:21:54;3.47;;;2.40;;
41711;SDS011;27399;51.516;13.670;2023-06-14T13:24:19;5.30;;;2.15;;
41711;SDS011;27399;51.516;13.670;2023-06-14T13:26:45;4.53;;;2.33;;
41711;SDS011;27399;51.516;13.670;2023-06-14T13:29:11;3.05;;;2.08;;
41711;SDS011;27399;51.516;13.670;2023-06-14T13:31:36;3.75;;;2.10;;
41711;SDS011;27399;51.516;13.670;2023-06-14T13:34:02;4.53;;;2.28;;
41711;SDS011;27399;51.516;13.670;2023-06-14T13:36:27;3.50;;;2.28;;
41711;SDS011;27399;51.516;13.670;2023-06-14T13:38:55;10.15;;;2.20;;
41711;SDS011;27399;51.516;13.670;2023-06-14T13:41:20;4.35;;;1.95;;
41711;SDS011;27399;51.516;13.670;2023-06-14T13:43:46;2.25;;;1.80;;
41711;SDS011;27399;51.516;13.670;2023-06-14T13:46:12;6.00;;;2.50;;
41711;SDS011;27399;51.516;13.670;2023-06-14T13:48:38;4.72;;;2.13;;
41711;SDS011;27399;51.516;13.670;2023-06-14T13:51:03;4.53;;;2.17;;
41711;SDS011;27399;51.516;13.670;2023-06-14T13:53:29;6.32;;;2.58;;
41711;SDS011;27399;51.516;13.670;2023-06-14T13:55:55;3.53;;;1.90;;
41711;SDS011;27399;51.516;13.670;2023-06-14T13:58:21;4.93;;;2.10;;
41711;SDS011;27399;51.516;13.670;2023-06-14T14:00:48;2.15;;;1.60;;
41711;SDS011;27399;51.516;13.670;2023-06-14T14:03:14;3.83;;;1.65;;
41711;SDS011;27399;51.516;13.670;2023-06-14T14:05:39;3.70;;;1.80;;
41711;SDS011;27399;51.516;13.670;2023-06-14T14:08:05;2.55;;;1.80;;
41711;SDS011;27399;51.516;13.670;2023-06-14T14:10:31;4.05;;;1.60;;
41711;SDS011;27399;51.516;13.670;2023-06-14T14:12:56;7.25;;;1.70;;
41711;SDS011;27399;51.516;13.670;2023-06-14T14:15:22;3.95;;;2.00;;
41711;SDS011;27399;51.516;13.670;2023-06-14T14:17:47;3.65;;;1.70;;
41711;SDS011;27399;51.516;13.670;2023-06-14T14:20:13;6.35;;;1.60;;
41711;SDS011;27399;51.516;13.670;2023-06-14T14:22:43;3.40;;;1.95;;
41711;SDS011;27399;51.516;13.670;2023-06-14T14:25:09;8.60;;;2.03;;
41711;SDS011;27399;51.516;13.670;2023-06-14T14:27:35;4.18;;;1.85;;
41711;SDS011;27399;51.516;13.670;2023-06-14T14:30:02;3.03;;;1.70;;
41711;SDS011;27399;51.516;13.670;2023-06-14T14:32:28;3.60;;;1.75;;
41711;SDS011;27399;51.516;13.670;2023-06-14T14:34:54;2.10;;;1.48;;
41711;SDS011;27399;51.516;13.670;2023-06-14T14:37:19;3.35;;;1.77;;
41711;SDS011;27399;51.516;13.670;2023-06-14T14:39:45;5.68;;;1.40;;
41711;SDS011;27399;51.516;13.670;2023-06-14T14:42:11;5.45;;;2.03;;
41711;SDS011;27399;51.516;13.670;2023-06-14T14:44:37;4.82;;;1.88;;
41711;SDS011;27399;51.516;13.670;2023-06-14T14:47:04;8.00;;;1.50;;
41711;SDS011;27399;51.516;13.670;2023-06-14T14:49:30;3.55;;;1.90;;
41711;SDS011;27399;51.516;13.670;2023-06-14T14:51:56;9.02;;;1.98;;
41711;SDS011;27399;51.516;13.670;2023-06-14T14:54:22;3.70;;;1.50;;
41711;SDS011;27399;51.516;13.670;2023-06-14T14:56:48;3.38;;;1.85;;
41711;SDS011;27399;51.516;13.670;2023-06-14T14:59:14;5.07;;;1.60;;
41711;SDS011;27399;51.516;13.670;2023-06-14T15:01:40;2.92;;;1.58;;
41711;SDS011;27399;51.516;13.670;2023-06-14T15:04:05;4.28;;;1.52;;
41711;SDS011;27399;51.516;13.670;2023-06-14T15:06:31;5.50;;;1.65;;